Time;durP1;ratioP1;P1;durP2;ratioP2;P2;SDS_P1;SDS_P2;PMS_P1;PMS_P2;Temp;Humidity;BMP_temperature;BMP_pressure;BME280_temperature;BME280_humidity;BME280_pressure;Samples;Min_cycle;Max_cycle;Signal;HPM_P1;HPM_P2
2021/07/07 00:00:11;;;;;;;7.03;2.83;;;14.20;89.00;;;;;;5111443;28;20052;-66
2021/07/07 00:02:37;;;;;;;7.67;3.03;;;14.10;89.20;;;;;;5112051;28;20423;-66
2021/07/07 00:05:04;;;;;;;7.13;2.67;;;14.10;89.30;;;;;;5112579;28;20095;-66
2021/07/07 00:07:30;;;;;;;5.73;2.60;;;14.10;89.50;;;;;;5111499;28;20108;-66
2021/07/07 00:09:56;;;;;;;7.90;2.70;;;14.10;89.70;;;;;;5111887;28;20055;-66
2021/07/07 00:12:22;;;;;;;7.80;2.97;;;14.10;89.80;;;;;;5111800;28;20583;-66
2021/07/07 00:14:48;;;;;;;6.47;4.17;;;14.10;89.90;;;;;;5110885;28;20083;-66
2021/07/07 00:17:13;;;;;;;7.20;2.47;;;14.10;90.00;;;;;;5111181;28;20055;-66
2021/07/07 00:19:39;;;;;;;7.13;2.60;;;14.10;90.00;;;;;;5110832;28;20048;-66
2021/07/07 00:22:04;;;;;;;6.20;2.80;;;14.10;90.00;;;;;;5111734;28;20126;-66
2021/07/07 00:24:30;;;;;;;5.77;2.50;;;14.00;90.00;;;;;;5111442;28;20699;-66
2021/07/07 00:26:56;;;;;;;6.80;2.83;;;14.00;90.10;;;;;;5111071;28;20176;-66
2021/07/07 00:29:21;;;;;;;6.97;2.53;;;14.00;90.10;;;;;;5110796;28;20055;-66
2021/07/07 00:31:47;;;;;;;6.50;3.00;;;14.00;90.10;;;;;;5111520;28;20056;-67
2021/07/07 00:34:15;;;;;;;7.77;2.73;;;14.00;90.20;;;;;;5110737;28;20047;-67
2021/07/07 00:36:43;;;;;;;5.95;2.58;;;14.00;90.20;;;;;;5111546;28;20051;-66
2021/07/07 00:39:09;;;;;;;7.50;2.70;;;13.90;90.10;;;;;;5111221;28;20502;-67
2021/07/07 00:41:35;;;;;;;7.70;2.77;;;13.90;90.10;;;;;;5110874;28;20058;-67
2021/07/07 00:44:00;;;;;;;6.93;3.30;;;13.90;90.20;;;;;;5111944;28;20103;-67
2021/07/07 00:46:26;;;;;;;6.10;3.07;;;14.00;90.10;;;;;;5111391;28;20048;-66
2021/07/07 00:48:51;;;;;;;6.50;2.93;;;13.90;90.10;;;;;;5114659;28;20062;-66
2021/07/07 00:51:17;;;;;;;12.37;2.63;;;13.90;90.00;;;;;;5115314;28;20062;-67
2021/07/07 00:53:43;;;;;;;7.63;2.87;;;13.90;90.10;;;;;;5115574;28;20040;-66
2021/07/07 00:56:09;;;;;;;5.00;2.63;;;13.90;90.10;;;;;;5114580;28;20063;-66
2021/07/07 00:58:38;;;;;;;7.97;3.07;;;13.80;90.20;;;;;;5115276;28;20453;-67
2021/07/07 01:01:05;;;;;;;7.47;3.00;;;13.80;90.20;;;;;;5115460;28;20044;-66
2021/07/07 01:03:32;;;;;;;7.27;3.00;;;13.80;90.20;;;;;;5114167;28;20052;-66
2021/07/07 01:05:58;;;;;;;6.60;2.80;;;13.80;90.30;;;;;;5115364;28;20108;-66
2021/07/07 01:08:24;;;;;;;6.73;2.90;;;13.80;90.30;;;;;;5114863;28;20051;-66
2021/07/07 01:10:50;;;;;;;7.43;2.77;;;13.80;90.30;;;;;;5114588;28;20047;-65
2021/07/07 01:13:18;;;;;;;7.70;3.43;;;13.80;90.30;;;;;;5114979;28;20484;-66
2021/07/07 01:15:45;;;;;;;8.47;3.10;;;13.80;90.20;;;;;;5114778;28;20130;-66
2021/07/07 01:18:20;;;;;;;8.87;2.97;;;13.80;90.30;;;;;;5114217;28;20047;-65
2021/07/07 01:20:45;;;;;;;6.00;3.03;;;13.80;90.30;;;;;;5114962;28;20131;-66
2021/07/07 01:23:13;;;;;;;9.90;2.90;;;13.70;90.40;;;;;;5113753;28;20086;-66
2021/07/07 01:25:39;;;;;;;9.93;3.30;;;13.70;90.40;;;;;;5115353;28;20112;-66
2021/07/07 01:28:06;;;;;;;5.40;2.83;;;13.70;90.40;;;;;;5115002;28;20442;-66
2021/07/07 01:30:32;;;;;;;6.30;3.40;;;13.70;90.50;;;;;;5114080;28;20543;-66
2021/07/07 01:32:59;;;;;;;7.50;2.90;;;13.60;90.50;;;;;;5114941;28;20043;-66
2021/07/07 01:35:25;;;;;;;7.80;3.13;;;13.60;90.70;;;;;;5114390;28;20116;-66
2021/07/07 01:37:52;;;;;;;8.90;3.20;;;13.60;90.80;;;;;;5114015;28;20059;-66
2021/07/07 01:40:24;;;;;;;5.90;3.20;;;13.60;90.80;;;;;;5114396;28;20044;-66
2021/07/07 01:42:50;;;;;;;5.70;3.00;;;13.70;90.90;;;;;;5114753;28;20043;-66
2021/07/07 01:45:17;;;;;;;6.83;3.10;;;13.70;90.90;;;;;;5113618;28;20126;-66
2021/07/07 01:47:43;;;;;;;7.60;3.60;;;13.70;90.90;;;;;;5114507;28;20564;-66
2021/07/07 01:50:11;;;;;;;7.47;2.90;;;13.70;91.00;;;;;;5114161;28;20099;-66
2021/07/07 01:52:38;;;;;;;9.20;3.80;;;13.70;91.10;;;;;;5113836;28;20046;-66
2021/07/07 01:55:09;;;;;;;6.30;3.30;;;13.80;91.20;;;;;;5114383;28;20047;-66
2021/07/07 01:57:48;;;;;;;10.60;3.80;;;13.80;91.20;;;;;;5114586;28;20047;-66
2021/07/07 02:00:16;;;;;;;4.97;3.10;;;13.80;91.20;;;;;;5112266;28;20055;-66
2021/07/07 02:02:43;;;;;;;6.53;3.43;;;13.80;91.20;;;;;;5114010;28;20056;-66
2021/07/07 02:05:10;;;;;;;5.80;2.80;;;13.90;91.20;;;;;;5113026;28;20047;-66
2021/07/07 02:07:36;;;;;;;7.43;3.07;;;13.80;91.20;;;;;;5114064;28;20039;-66
2021/07/07 02:10:07;;;;;;;5.37;3.37;;;13.90;91.30;;;;;;5113974;28;20149;-66
2021/07/07 02:12:33;;;;;;;7.50;3.50;;;13.90;91.30;;;;;;5113059;28;20047;-66
2021/07/07 02:14:59;;;;;;;5.00;3.27;;;13.90;91.30;;;;;;5113730;28;20504;-65
2021/07/07 02:17:25;;;;;;;8.20;3.07;;;13.90;91.30;;;;;;5113186;28;20109;-66
2021/07/07 02:19:50;;;;;;;8.37;3.53;;;13.90;91.30;;;;;;5113102;28;20039;-65
2021/07/07 02:22:16;;;;;;;8.23;4.00;;;13.90;91.30;;;;;;5113692;28;20048;-66
2021/07/07 02:24:41;;;;;;;9.40;3.40;;;13.80;91.30;;;;;;5113830;28;20055;-66
2021/07/07 02:27:08;;;;;;;7.10;3.60;;;13.80;91.40;;;;;;5112793;28;20486;-66
2021/07/07 02:29:34;;;;;;;4.80;3.17;;;13.80;91.40;;;;;;5113736;28;20040;-66
2021/07/07 02:32:00;;;;;;;5.63;3.17;;;13.80;91.40;;;;;;5113595;28;20138;-66
2021/07/07 02:34:26;;;;;;;4.90;3.23;;;13.80;91.40;;;;;;5112467;28;20131;-67
2021/07/07 02:36:52;;;;;;;6.53;3.20;;;13.80;91.40;;;;;;5113632;28;20349;-66
2021/07/07 02:39:17;;;;;;;5.40;3.07;;;13.80;91.50;;;;;;5113518;28;20196;-66
2021/07/07 02:41:43;;;;;;;4.40;2.77;;;13.90;91.50;;;;;;5112870;28;20090;-66
2021/07/07 02:44:09;;;;;;;6.33;3.10;;;13.80;91.40;;;;;;5113213;28;20488;-66
2021/07/07 02:46:34;;;;;;;7.53;3.23;;;13.80;91.50;;;;;;5113003;28;20051;-66
2021/07/07 02:49:00;;;;;;;8.30;3.43;;;13.80;91.50;;;;;;5112556;28;20100;-66
2021/07/07 02:51:25;;;;;;;8.03;3.50;;;13.80;91.50;;;;;;5113002;28;20051;-66
2021/07/07 02:53:51;;;;;;;7.40;3.73;;;13.80;91.50;;;;;;5113069;28;20047;-66
2021/07/07 02:56:17;;;;;;;6.87;3.10;;;13.80;91.60;;;;;;5111880;28;20055;-66
2021/07/07 02:58:42;;;;;;;7.67;3.20;;;13.80;91.60;;;;;;5113078;28;20067;-66
2021/07/07 03:01:09;;;;;;;7.93;3.83;;;13.80;91.60;;;;;;5112822;28;20111;-66
2021/07/07 03:03:34;;;;;;;7.23;3.57;;;13.80;91.70;;;;;;5112384;28;20127;-66
2021/07/07 03:06:02;;;;;;;6.73;3.30;;;13.80;91.70;;;;;;5112837;28;20053;-67
2021/07/07 03:08:32;;;;;;;4.97;4.40;;;13.80;91.70;;;;;;5111738;28;20044;-66
2021/07/07 03:10:59;;;;;;;6.93;3.63;;;13.70;91.70;;;;;;5113017;28;20381;-66
2021/07/07 03:13:26;;;;;;;8.43;3.80;;;13.70;91.80;;;;;;5112495;28;20062;-66
2021/07/07 03:15:52;;;;;;;9.00;3.37;;;13.70;91.80;;;;;;5111983;28;20514;-66
2021/07/07 03:18:18;;;;;;;7.63;3.40;;;13.70;91.80;;;;;;5113162;28;20106;-66
2021/07/07 03:20:48;;;;;;;9.77;3.63;;;13.70;91.90;;;;;;5113078;28;20047;-66
2021/07/07 03:23:17;;;;;;;8.67;3.37;;;13.70;92.00;;;;;;5112024;28;20127;-66
2021/07/07 03:25:42;;;;;;;11.47;3.70;;;13.70;92.00;;;;;;5112485;28;20416;-66
2021/07/07 03:28:09;;;;;;;6.90;3.47;;;13.70;92.00;;;;;;5112812;28;20048;-66
2021/07/07 03:30:35;;;;;;;8.73;3.07;;;13.70;92.10;;;;;;5111730;28;20491;-66
2021/07/07 03:33:02;;;;;;;6.67;3.50;;;13.70;92.20;;;;;;5112638;28;20048;-66
2021/07/07 03:35:28;;;;;;;11.13;3.90;;;13.70;92.20;;;;;;5112094;28;20051;-66
2021/07/07 03:37:54;;;;;;;7.60;3.87;;;13.70;92.30;;;;;;5111639;28;20448;-66
2021/07/07 03:40:24;;;;;;;5.77;3.37;;;13.70;92.30;;;;;;5112233;28;20062;-66
2021/07/07 03:42:49;;;;;;;6.53;3.40;;;13.70;92.30;;;;;;5112464;28;20077;-66
2021/07/07 03:45:17;;;;;;;6.17;3.60;;;13.70;92.30;;;;;;5111439;28;20101;-66
2021/07/07 03:47:44;;;;;;;7.13;3.90;;;13.70;92.30;;;;;;5112241;28;20381;-66
2021/07/07 03:50:10;;;;;;;5.37;3.37;;;13.70;92.30;;;;;;5111888;28;20522;-66
2021/07/07 03:52:37;;;;;;;6.83;3.50;;;13.70;92.30;;;;;;5111301;28;20047;-66
2021/07/07 03:55:11;;;;;;;7.20;3.27;;;13.70;92.30;;;;;;5111774;28;20071;-66
2021/07/07 03:57:37;;;;;;;6.50;3.20;;;13.70;92.30;;;;;;5111339;28;20051;-66
2021/07/07 04:00:05;;;;;;;8.70;3.30;;;13.70;92.30;;;;;;5111997;28;20036;-66
2021/07/07 04:02:31;;;;;;;8.90;3.43;;;13.70;92.30;;;;;;5111755;28;20381;-66
2021/07/07 04:04:56;;;;;;;8.47;3.50;;;13.70;92.20;;;;;;5111607;28;20062;-66
2021/07/07 04:07:22;;;;;;;7.53;3.47;;;13.70;92.30;;;;;;5111605;28;20054;-67
2021/07/07 04:09:48;;;;;;;7.27;3.43;;;13.70;92.20;;;;;;5111763;28;20071;-66
2021/07/07 04:12:18;;;;;;;7.23;3.53;;;13.80;92.30;;;;;;5110905;28;20048;-66
2021/07/07 04:14:44;;;;;;;8.90;3.50;;;13.70;92.20;;;;;;5111631;28;20100;-66
2021/07/07 04:17:09;;;;;;;7.43;3.63;;;13.70;92.20;;;;;;5111703;28;20222;-66
2021/07/07 04:19:35;;;;;;;9.27;3.20;;;13.80;92.20;;;;;;5111311;28;20067;-66
2021/07/07 04:22:01;;;;;;;5.90;3.30;;;13.80;92.20;;;;;;5111240;28;20048;-66
2021/07/07 04:24:26;;;;;;;5.77;3.40;;;13.70;92.20;;;;;;5111297;28;20048;-66
2021/07/07 04:26:52;;;;;;;8.23;3.30;;;13.80;92.20;;;;;;5110863;28;20043;-66
2021/07/07 04:29:18;;;;;;;6.97;3.17;;;13.80;92.10;;;;;;5111273;28;20047;-66
2021/07/07 04:31:44;;;;;;;6.13;3.07;;;13.90;92.20;;;;;;5111661;28;20050;-66
2021/07/07 04:34:10;;;;;;;5.60;3.30;;;14.00;92.10;;;;;;5110356;28;20044;-66
2021/07/07 04:36:35;;;;;;;7.87;3.20;;;14.00;92.00;;;;;;5111439;28;20055;-66
2021/07/07 04:39:05;;;;;;;6.90;3.30;;;14.10;92.10;;;;;;5111397;28;20063;-66
2021/07/07 04:41:30;;;;;;;9.70;3.37;;;14.20;92.00;;;;;;5110358;28;20108;-66
2021/07/07 04:43:56;;;;;;;7.60;3.50;;;14.20;91.90;;;;;;5111507;28;20131;-66
2021/07/07 04:46:22;;;;;;;7.07;3.40;;;14.30;91.90;;;;;;5111066;28;20487;-66
2021/07/07 04:48:47;;;;;;;6.67;2.83;;;14.30;92.10;;;;;;5110566;28;20131;-66
2021/07/07 04:51:14;;;;;;;4.80;2.93;;;14.50;92.10;;;;;;5111022;28;20074;-66
2021/07/07 04:53:40;;;;;;;8.40;3.40;;;14.60;91.70;;;;;;5111040;28;20056;-66
2021/07/07 04:56:06;;;;;;;6.13;3.30;;;14.60;91.60;;;;;;5110476;28;20510;-66
2021/07/07 04:58:32;;;;;;;5.27;3.10;;;14.60;91.60;;;;;;5110732;28;20051;-66
2021/07/07 05:00:57;;;;;;;7.20;3.13;;;14.60;91.70;;;;;;5110485;28;20544;-66
2021/07/07 05:03:23;;;;;;;9.07;3.10;;;14.60;91.70;;;;;;5110956;28;20044;-66
2021/07/07 05:05:49;;;;;;;6.60;3.07;;;14.60;91.70;;;;;;5111084;28;20050;-66
2021/07/07 05:08:14;;;;;;;9.77;3.20;;;14.60;91.70;;;;;;5110142;28;20364;-66
2021/07/07 05:10:40;;;;;;;7.33;3.40;;;14.60;91.70;;;;;;5111221;28;20433;-66
2021/07/07 05:13:06;;;;;;;8.30;3.40;;;14.60;91.70;;;;;;5111229;28;20113;-66
2021/07/07 05:15:33;;;;;;;9.00;3.70;;;14.60;91.70;;;;;;5109727;28;20493;-66
2021/07/07 05:18:00;;;;;;;9.30;3.73;;;14.60;91.80;;;;;;5110826;28;20508;-66
2021/07/07 05:20:25;;;;;;;7.07;3.60;;;14.70;91.90;;;;;;5110600;28;20082;-66
2021/07/07 05:22:51;;;;;;;6.23;3.77;;;14.80;91.80;;;;;;5110211;28;20075;-66
2021/07/07 05:25:18;;;;;;;9.40;4.27;;;14.90;91.80;;;;;;5110568;28;20092;-66
2021/07/07 05:27:45;;;;;;;8.10;3.80;;;15.00;91.70;;;;;;5111096;28;20059;-66
2021/07/07 05:30:13;;;;;;;7.43;3.57;;;15.00;91.50;;;;;;5109834;28;20039;-66
2021/07/07 05:32:39;;;;;;;7.73;3.33;;;15.00;91.50;;;;;;5110831;28;20069;-66
2021/07/07 05:35:06;;;;;;;8.37;3.30;;;15.00;91.40;;;;;;5113125;28;20152;-66
2021/07/07 05:37:32;;;;;;;8.70;4.40;;;15.10;91.40;;;;;;5113792;28;20104;-66
2021/07/07 05:39:57;;;;;;;5.53;3.40;;;15.20;91.50;;;;;;5114876;28;20047;-66
2021/07/07 05:42:23;;;;;;;10.03;3.70;;;15.20;91.30;;;;;;5114023;28;20112;-66
2021/07/07 05:44:50;;;;;;;6.03;3.50;;;15.30;91.20;;;;;;5113481;28;20043;-66
2021/07/07 05:47:15;;;;;;;8.17;3.60;;;15.40;91.20;;;;;;5113763;28;20047;-66
2021/07/07 05:49:42;;;;;;;7.97;3.23;;;15.50;91.10;;;;;;5114453;28;20054;-66
2021/07/07 05:52:08;;;;;;;6.73;3.23;;;15.50;91.00;;;;;;5113509;28;20063;-66
2021/07/07 05:54:34;;;;;;;6.07;2.90;;;15.60;91.00;;;;;;5114204;28;20048;-66
2021/07/07 05:57:00;;;;;;;7.20;3.30;;;15.60;90.90;;;;;;5114235;28;20052;-66
2021/07/07 05:59:26;;;;;;;12.67;5.23;;;15.70;90.80;;;;;;5113068;28;20200;-66
2021/07/07 06:01:52;;;;;;;13.17;4.60;;;15.80;90.90;;;;;;5113712;28;20496;-67
2021/07/07 06:04:17;;;;;;;5.97;3.13;;;15.90;90.80;;;;;;5113157;28;20496;-67
2021/07/07 06:06:43;;;;;;;7.03;3.10;;;16.00;90.60;;;;;;5113600;28;20108;-66
2021/07/07 06:09:09;;;;;;;5.07;2.83;;;16.00;90.50;;;;;;5113632;28;20533;-66
2021/07/07 06:11:34;;;;;;;6.90;2.80;;;16.10;90.40;;;;;;5112647;28;20055;-65
2021/07/07 06:14:01;;;;;;;5.23;2.87;;;16.10;90.30;;;;;;5113411;28;20055;-66
2021/07/07 06:16:27;;;;;;;4.37;2.97;;;16.20;90.20;;;;;;5113168;28;20064;-66
2021/07/07 06:18:52;;;;;;;9.07;2.73;;;16.30;90.10;;;;;;5112655;28;20513;-66
2021/07/07 06:21:18;;;;;;;4.37;2.40;;;16.30;90.00;;;;;;5112560;28;20055;-66
2021/07/07 06:23:44;;;;;;;6.47;2.50;;;16.40;89.50;;;;;;5113416;28;20047;-66
2021/07/07 06:26:10;;;;;;;8.33;2.67;;;16.50;89.40;;;;;;5112275;28;20128;-66
2021/07/07 06:28:37;;;;;;;5.73;2.47;;;16.50;89.40;;;;;;5113406;28;20039;-66
2021/07/07 06:31:03;;;;;;;4.40;2.10;;;16.60;89.30;;;;;;5113166;28;20143;-66
2021/07/07 06:33:28;;;;;;;7.50;2.53;;;16.60;89.20;;;;;;5112187;28;20239;-66
2021/07/07 06:35:54;;;;;;;8.13;2.57;;;16.70;89.10;;;;;;5113175;28;20096;-66
2021/07/07 06:38:20;;;;;;;9.87;2.43;;;16.70;89.10;;;;;;5113019;28;20049;-65
2021/07/07 06:40:48;;;;;;;5.73;2.37;;;16.70;89.00;;;;;;5112030;28;20051;-66
2021/07/07 06:43:14;;;;;;;4.23;2.23;;;16.70;88.80;;;;;;5112628;28;20372;-67
2021/07/07 06:45:40;;;;;;;4.67;2.33;;;16.70;88.90;;;;;;5112814;28;20101;-66
2021/07/07 06:48:08;;;;;;;5.43;2.50;;;16.70;88.80;;;;;;5112384;28;20047;-66
2021/07/07 06:50:35;;;;;;;4.53;2.23;;;16.70;88.80;;;;;;5112389;28;20468;-66
2021/07/07 06:53:01;;;;;;;5.40;2.37;;;16.70;88.90;;;;;;5112681;28;20048;-66
2021/07/07 06:55:27;;;;;;;7.20;2.10;;;16.70;88.90;;;;;;5110994;28;20145;-66
2021/07/07 06:57:54;;;;;;;7.93;2.30;;;16.70;88.90;;;;;;5113043;28;20071;-66
2021/07/07 07:00:21;;;;;;;6.43;2.67;;;16.70;89.00;;;;;;5112430;28;20450;-65
2021/07/07 07:02:47;;;;;;;5.73;2.27;;;16.80;89.10;;;;;;5112175;28;20047;-66
2021/07/07 07:05:14;;;;;;;5.10;2.00;;;16.80;89.20;;;;;;5112980;28;20496;-66
2021/07/07 07:07:41;;;;;;;4.97;2.33;;;16.90;89.10;;;;;;5112240;28;20070;-65
2021/07/07 07:10:08;;;;;;;9.13;2.83;;;16.90;89.10;;;;;;5112687;28;20124;-66
2021/07/07 07:12:37;;;;;;;6.23;2.13;;;17.00;89.20;;;;;;5113256;28;20079;-66
2021/07/07 07:15:18;;;;;;;8.50;2.57;;;17.10;89.00;;;;;;5111760;28;20060;-66
2021/07/07 07:17:44;;;;;;;6.45;2.60;;;17.20;88.90;;;;;;5112466;28;20102;-66
2021/07/07 07:20:14;;;;;;;5.20;2.20;;;17.30;88.60;;;;;;5112113;28;20048;-67
2021/07/07 07:22:40;;;;;;;4.30;1.77;;;17.40;88.40;;;;;;5111677;28;20047;-66
2021/07/07 07:25:11;;;;;;;5.43;2.10;;;17.50;88.00;;;;;;5112075;28;20074;-66
2021/07/07 07:27:37;;;;;;;7.10;2.05;;;17.60;87.70;;;;;;5112425;28;20384;-66
2021/07/07 07:30:07;;;;;;;7.13;2.10;;;17.70;87.50;;;;;;5111751;28;20097;-66
2021/07/07 07:32:33;;;;;;;6.60;2.10;;;17.90;87.10;;;;;;5112229;28;20043;-66
2021/07/07 07:34:59;;;;;;;4.83;2.13;;;18.00;86.70;;;;;;5112001;28;20112;-67
2021/07/07 07:37:35;;;;;;;5.27;2.20;;;18.10;86.10;;;;;;5110817;28;20050;-67
2021/07/07 07:40:01;;;;;;;4.47;1.97;;;18.10;85.80;;;;;;5112277;28;20043;-66
2021/07/07 07:42:26;;;;;;;9.33;2.60;;;18.10;85.70;;;;;;5111706;28;20058;-66
2021/07/07 07:44:52;;;;;;;6.77;1.93;;;18.10;85.50;;;;;;5111405;28;20048;-66
2021/07/07 07:47:18;;;;;;;7.37;2.13;;;18.20;85.30;;;;;;5111974;28;20070;-66
2021/07/07 07:49:44;;;;;;;5.30;1.70;;;18.30;85.00;;;;;;5110975;28;20059;-66
2021/07/07 07:52:10;;;;;;;6.07;2.00;;;18.40;85.00;;;;;;5111544;28;20043;-66
2021/07/07 07:54:35;;;;;;;6.87;2.10;;;18.50;84.60;;;;;;5111511;28;20046;-66
2021/07/07 07:57:02;;;;;;;4.17;1.73;;;18.60;84.20;;;;;;5109972;28;20066;-66
2021/07/07 07:59:28;;;;;;;4.07;1.97;;;18.80;83.90;;;;;;5111257;27;20070;-66
2021/07/07 08:01:54;;;;;;;6.60;2.10;;;18.80;83.60;;;;;;5111459;28;20444;-66
2021/07/07 08:04:20;;;;;;;5.60;1.90;;;18.90;83.50;;;;;;5110662;28;20042;-66
2021/07/07 08:06:46;;;;;;;6.43;2.00;;;19.00;83.10;;;;;;5111532;28;20051;-66
2021/07/07 08:09:12;;;;;;;6.27;2.20;;;19.10;83.00;;;;;;5111270;28;20078;-65
2021/07/07 08:11:38;;;;;;;6.90;2.37;;;19.10;81.70;;;;;;5111105;28;20425;-66
2021/07/07 08:14:05;;;;;;;5.23;2.10;;;19.20;81.90;;;;;;5111280;28;20480;-66
2021/07/07 08:16:33;;;;;;;7.63;2.03;;;19.10;81.30;;;;;;5110839;28;20430;-66
2021/07/07 08:18:58;;;;;;;10.27;2.40;;;19.10;81.30;;;;;;5110736;28;20051;-66
2021/07/07 08:21:24;;;;;;;7.80;2.50;;;19.20;81.50;;;;;;5111328;28;20044;-66
2021/07/07 08:24:10;;;;;;;3.83;1.80;;;19.20;81.60;;;;;;5110208;28;20051;-66
2021/07/07 08:26:36;;;;;;;7.93;2.20;;;19.10;81.40;;;;;;5111039;28;20100;-65
2021/07/07 08:29:01;;;;;;;6.77;2.30;;;19.20;81.30;;;;;;5111620;28;20118;-66
2021/07/07 08:31:27;;;;;;;9.60;2.57;;;19.20;80.80;;;;;;5111167;28;20082;-66
2021/07/07 08:33:54;;;;;;;7.53;2.17;;;19.20;80.10;;;;;;5110541;28;20080;-66
2021/07/07 08:36:26;;;;;;;6.97;2.30;;;19.20;80.10;;;;;;5110634;28;20153;-66
2021/07/07 08:38:53;;;;;;;7.77;2.03;;;19.30;79.90;;;;;;5111390;28;20115;-66
2021/07/07 08:41:20;;;;;;;7.60;2.60;;;19.30;79.90;;;;;;5111012;28;20074;-66
2021/07/07 08:43:46;;;;;;;9.20;2.33;;;19.30;80.00;;;;;;5111148;28;20044;-66
2021/07/07 08:46:13;;;;;;;7.33;2.50;;;19.30;79.90;;;;;;5110154;28;20056;-67
2021/07/07 08:48:39;;;;;;;8.70;2.40;;;19.40;79.80;;;;;;5111010;28;20052;-67
2021/07/07 08:51:04;;;;;;;7.43;2.13;;;19.50;79.70;;;;;;5111022;28;20381;-67
2021/07/07 08:53:31;;;;;;;8.70;2.80;;;19.50;79.60;;;;;;5110379;28;20051;-67
2021/07/07 08:55:58;;;;;;;10.50;3.03;;;19.50;79.10;;;;;;5110940;28;20075;-67
2021/07/07 08:58:24;;;;;;;6.70;1.90;;;19.60;78.80;;;;;;5111056;28;20054;-67
2021/07/07 09:00:51;;;;;;;7.37;2.57;;;19.60;78.60;;;;;;5110299;28;20126;-67
2021/07/07 09:03:18;;;;;;;8.97;2.50;;;19.70;78.20;;;;;;5110796;28;20039;-67
2021/07/07 09:05:58;;;;;;;6.83;2.03;;;19.80;78.50;;;;;;5111252;28;20058;-67
2021/07/07 09:08:33;;;;;;;7.43;2.40;;;19.90;78.30;;;;;;5111352;28;20134;-67
2021/07/07 09:11:28;;;;;;;16.73;2.80;;;20.10;78.10;;;;;;5115119;28;20071;-67
2021/07/07 09:14:12;;;;;;;8.10;2.53;;;20.20;77.30;;;;;;5109519;28;20153;-67
2021/07/07 09:16:45;;;;;;;7.97;2.33;;;20.30;77.40;;;;;;5114919;28;20052;-67
2021/07/07 09:19:16;;;;;;;4.63;2.23;;;20.40;77.10;;;;;;5114513;28;20044;-67
2021/07/07 09:21:50;;;;;;;7.00;2.90;;;20.50;76.90;;;;;;5114518;28;20044;-67
2021/07/07 09:24:23;;;;;;;7.23;2.60;;;20.70;76.80;;;;;;5114315;27;20061;-67
2021/07/07 09:27:07;;;;;;;8.57;2.67;;;20.90;77.00;;;;;;5114887;27;20051;-67
2021/07/07 09:29:53;;;;;;;11.88;4.57;;;21.10;76.80;;;;;;5113166;28;20145;-68
2021/07/07 09:32:43;;;;;;;24.55;9.48;;;21.20;77.60;;;;;;5113774;28;20051;-68
2021/07/07 09:35:11;;;;;;;7.83;2.30;;;21.40;77.20;;;;;;5113874;28;20073;-68
2021/07/07 09:37:42;;;;;;;5.63;2.20;;;21.60;75.60;;;;;;5114239;28;20346;-68
2021/07/07 09:40:09;;;;;;;7.47;2.53;;;21.70;73.40;;;;;;5114391;28;20073;-67
2021/07/07 09:42:41;;;;;;;6.50;2.00;;;21.90;72.50;;;;;;5113600;28;20121;-67
2021/07/07 09:45:09;;;;;;;10.43;2.53;;;22.00;71.40;;;;;;5113960;28;20115;-67
2021/07/07 09:47:35;;;;;;;6.72;2.38;;;22.20;70.10;;;;;;5114344;28;20051;-67
2021/07/07 09:50:03;;;;;;;6.47;2.17;;;22.50;69.10;;;;;;5113479;28;20111;-67
2021/07/07 09:52:48;;;;;;;6.72;2.05;;;22.60;67.30;;;;;;5113233;28;20414;-67
2021/07/07 09:55:14;;;;;;;9.52;2.42;;;22.70;66.40;;;;;;5113485;28;20079;-68
2021/07/07 09:57:45;;;;;;;5.40;2.08;;;22.80;66.50;;;;;;5113338;28;20055;-67
2021/07/07 10:00:21;;;;;;;6.78;2.63;;;23.00;67.10;;;;;;5113624;28;20074;-67
2021/07/07 10:02:49;;;;;;;8.15;2.67;;;23.10;65.10;;;;;;5113799;28;20058;-67
2021/07/07 10:05:38;;;;;;;7.35;2.42;;;23.10;64.50;;;;;;5112197;28;20074;-67
2021/07/07 10:08:25;;;;;;;6.47;2.20;;;23.10;65.30;;;;;;5112296;28;20090;-67
2021/07/07 10:10:56;;;;;;;6.43;2.30;;;23.10;64.50;;;;;;5112752;27;20062;-67
2021/07/07 10:13:23;;;;;;;10.60;2.45;;;23.20;63.80;;;;;;5113460;28;20150;-67
2021/07/07 10:16:09;;;;;;;8.25;2.80;;;23.20;63.10;;;;;;5111934;28;20063;-68
2021/07/07 10:18:55;;;;;;;6.07;2.20;;;23.10;63.60;;;;;;5111903;28;20079;-67
2021/07/07 10:21:22;;;;;;;5.05;2.55;;;23.00;63.50;;;;;;5112593;28;20147;-67
2021/07/07 10:23:50;;;;;;;5.88;1.92;;;22.80;63.60;;;;;;5112185;28;20042;-67
2021/07/07 10:26:17;;;;;;;5.32;1.73;;;22.80;64.40;;;;;;5112141;27;20146;-67
2021/07/07 10:28:43;;;;;;;5.28;1.63;;;22.80;63.40;;;;;;5113009;28;20043;-67
2021/07/07 10:31:09;;;;;;;6.78;2.03;;;22.70;62.00;;;;;;5112906;28;20104;-67
2021/07/07 10:33:36;;;;;;;9.73;2.30;;;22.70;63.90;;;;;;5112368;28;20090;-67
2021/07/07 10:36:19;;;;;;;7.60;2.15;;;22.80;63.00;;;;;;5112766;28;20079;-67
2021/07/07 10:38:59;;;;;;;4.75;1.83;;;22.90;62.70;;;;;;5112220;28;20043;-67
2021/07/07 10:41:44;;;;;;;8.88;2.10;;;23.00;62.30;;;;;;5112687;28;20121;-68
2021/07/07 10:44:11;;;;;;;5.75;2.30;;;23.10;61.10;;;;;;5112721;28;20065;-67
2021/07/07 10:46:51;;;;;;;7.40;2.30;;;23.20;61.90;;;;;;5112006;28;20066;-67
2021/07/07 10:49:17;;;;;;;10.07;2.30;;;23.30;61.00;;;;;;5112454;28;20206;-67
2021/07/07 10:51:48;;;;;;;6.03;2.10;;;23.30;60.70;;;;;;5112483;28;20045;-67
2021/07/07 10:54:32;;;;;;;8.30;2.22;;;23.20;60.90;;;;;;5111447;28;20154;-67
2021/07/07 10:57:00;;;;;;;6.15;2.22;;;23.30;60.30;;;;;;5112600;28;20051;-66
2021/07/07 10:59:45;;;;;;;10.73;2.42;;;23.30;60.10;;;;;;5112350;28;20047;-66
2021/07/07 11:02:20;;;;;;;6.07;2.03;;;23.30;57.80;;;;;;5112037;28;20512;-67
2021/07/07 11:04:50;;;;;;;8.43;2.65;;;23.20;59.70;;;;;;5112654;28;20074;-67
2021/07/07 11:07:34;;;;;;;5.20;2.10;;;23.20;60.20;;;;;;5111422;28;20055;-67
2021/07/07 11:10:26;;;;;;;7.40;2.28;;;23.40;59.80;;;;;;5112720;28;20130;-67
2021/07/07 11:12:55;;;;;;;6.85;2.22;;;23.40;59.50;;;;;;5088510;28;20066;-67
2021/07/07 11:15:23;;;;;;;8.60;2.40;;;23.40;59.30;;;;;;5111123;28;20067;-68
2021/07/07 11:17:51;;;;;;;9.50;2.15;;;23.40;58.80;;;;;;5112308;28;20054;-67
2021/07/07 11:20:23;;;;;;;5.50;1.90;;;23.40;58.70;;;;;;5111651;28;20331;-67
2021/07/07 11:23:10;;;;;;;11.57;2.70;;;23.30;59.10;;;;;;5111526;28;20116;-67
2021/07/07 11:25:39;;;;;;;6.13;2.08;;;23.20;59.20;;;;;;5112170;28;20472;-65
2021/07/07 11:28:16;;;;;;;10.43;2.40;;;23.10;59.70;;;;;;5111426;28;20067;-67
2021/07/07 11:30:43;;;;;;;10.93;2.92;;;23.00;60.40;;;;;;5112203;28;20409;-65
2021/07/07 11:33:08;;;;;;;8.18;2.58;;;22.90;60.80;;;;;;5111097;28;20073;-66
2021/07/07 11:35:40;;;;;;;10.15;2.30;;;22.80;60.80;;;;;;5111289;28;20051;-66
2021/07/07 11:38:11;;;;;;;8.75;2.22;;;22.70;60.30;;;;;;5111811;28;20073;-66
2021/07/07 11:40:39;;;;;;;5.95;2.25;;;22.50;60.50;;;;;;5112159;28;20051;-66
2021/07/07 11:43:08;;;;;;;6.80;2.63;;;22.50;60.80;;;;;;5111026;28;20050;-66
2021/07/07 11:45:49;;;;;;;4.72;2.08;;;22.40;61.00;;;;;;5111634;28;20075;-66
2021/07/07 11:50:53;;;;;;;8.05;2.55;;;22.20;61.40;;;;;;5111412;28;20067;-66
2021/07/07 11:53:20;;;;;;;6.95;2.63;;;22.10;61.90;;;;;;5111330;28;20071;-66
2021/07/07 11:55:49;;;;;;;8.23;2.45;;;22.10;62.40;;;;;;5112275;28;20048;-66
2021/07/07 11:58:25;;;;;;;10.10;3.33;;;22.00;64.30;;;;;;5111129;28;20051;-66
2021/07/07 12:00:53;;;;;;;10.52;3.55;;;21.90;66.60;;;;;;5111846;28;20075;-66
2021/07/07 12:03:20;;;;;;;11.65;4.45;;;21.70;68.70;;;;;;5110778;28;20048;-66
2021/07/07 12:05:56;;;;;;;9.27;3.35;;;21.60;70.60;;;;;;5111864;28;20044;-67
2021/07/07 12:08:24;;;;;;;8.35;3.42;;;21.50;71.80;;;;;;5111156;28;20047;-67
2021/07/07 12:11:02;;;;;;;6.03;3.42;;;21.40;71.90;;;;;;5110883;28;20376;-67
2021/07/07 12:13:29;;;;;;;10.40;3.67;;;21.30;72.90;;;;;;5111097;28;20126;-67
2021/07/07 12:16:15;;;;;;;5.37;2.60;;;21.40;72.30;;;;;;5110925;28;20226;-67
2021/07/07 12:18:41;;;;;;;6.63;2.97;;;21.30;71.30;;;;;;5110754;28;20048;-67
2021/07/07 12:21:07;;;;;;;9.73;3.63;;;21.30;71.00;;;;;;5111011;28;20056;-67
2021/07/07 12:23:47;;;;;;;8.00;3.63;;;21.40;70.90;;;;;;5110340;28;20525;-67
2021/07/07 12:26:23;;;;;;;7.60;3.07;;;21.30;71.40;;;;;;5110144;28;20398;-68
2021/07/07 12:28:53;;;;;;;9.60;3.40;;;21.40;71.70;;;;;;5110675;28;20546;-67
2021/07/07 12:31:21;;;;;;;9.15;3.35;;;21.40;71.60;;;;;;5110216;27;20047;-67
2021/07/07 12:33:47;;;;;;;7.90;3.10;;;21.40;71.30;;;;;;5110492;28;20130;-66
2021/07/07 12:36:14;;;;;;;6.93;3.10;;;21.40;71.30;;;;;;5110234;28;20047;-67
2021/07/07 12:38:47;;;;;;;7.20;2.83;;;21.40;70.80;;;;;;5109499;28;20044;-67
2021/07/07 12:41:13;;;;;;;7.60;3.00;;;21.40;70.60;;;;;;5107554;28;20092;-66
2021/07/07 12:43:57;;;;;;;6.00;2.67;;;21.30;70.60;;;;;;5112003;28;20062;-66
2021/07/07 12:46:23;;;;;;;7.87;2.57;;;21.30;70.60;;;;;;5093649;28;20063;-66
2021/07/07 12:48:50;;;;;;;6.93;2.67;;;21.20;70.20;;;;;;5094811;28;20485;-66
2021/07/07 12:51:27;;;;;;;7.90;2.83;;;21.20;70.40;;;;;;5094202;28;20048;-67
2021/07/07 12:53:54;;;;;;;9.47;2.90;;;21.10;70.10;;;;;;5094161;28;20040;-67